sensor_id;sensor_type;location;lat;lon;timestamp;pressure;altitude;pressure_sealevel;temperature;humidity
56894;BME280;43392;50.078;13.704;2023-04-03T00:01:15;97712.03;;;2.90;77.07
56894;BME280;43392;50.078;13.704;2023-04-03T00:03:42;97704.72;;;2.86;77.09
56894;BME280;43392;50.078;13.704;2023-04-03T00:06:11;97707.34;;;2.86;77.13
56894;BME280;43392;50.078;13.704;2023-04-03T00:08:38;97707.34;;;2.86;77.41
56894;BME280;43392;50.078;13.704;2023-04-03T00:11:06;97707.34;;;2.86;77.50
56894;BME280;43392;50.078;13.704;2023-04-03T00:13:33;97704.72;;;2.86;77.33
56894;BME280;43392;50.078;13.704;2023-04-03T00:15:59;97708.59;;;2.83;77.23
56894;BME280;43392;50.078;13.704;2023-04-03T00:18:27;97709.00;;;2.80;77.18
56894;BME280;43392;50.078;13.704;2023-04-03T00:20:53;97714.69;;;2.77;77.22
56894;BME280;43392;50.078;13.704;2023-04-03T00:23:21;97716.34;;;2.78;77.42
56894;BME280;43392;50.078;13.704;2023-04-03T00:25:49;97716.53;;;2.77;77.45
56894;BME280;43392;50.078;13.704;2023-04-03T00:28:16;97715.50;;;2.78;77.51
56894;BME280;43392;50.078;13.704;2023-04-03T00:30:42;97718.75;;;2.80;77.57
56894;BME280;43392;50.078;13.704;2023-04-03T00:33:10;97715.72;;;2.76;76.92
56894;BME280;43392;50.078;13.704;2023-04-03T00:35:37;97726.94;;;2.78;77.26
56894;BME280;43392;50.078;13.704;2023-04-03T00:38:04;97719.16;;;2.77;77.15
56894;BME280;43392;50.078;13.704;2023-04-03T00:40:36;97724.69;;;2.75;77.23
56894;BME280;43392;50.078;13.704;2023-04-03T00:43:10;97718.19;;;2.71;77.15
56894;BME280;43392;50.078;13.704;2023-04-03T00:45:38;97735.06;;;2.77;77.47
56894;BME280;43392;50.078;13.704;2023-04-03T00:48:08;97725.69;;;2.74;76.98
56894;BME280;43392;50.078;13.704;2023-04-03T00:50:38;97722.06;;;2.68;76.93
56894;BME280;43392;50.078;13.704;2023-04-03T00:53:08;97724.91;;;2.67;77.08
56894;BME280;43392;50.078;13.704;2023-04-03T00:55:38;97724.50;;;2.70;77.26
56894;BME280;43392;50.078;13.704;2023-04-03T00:58:05;97726.13;;;2.71;77.15
56894;BME280;43392;50.078;13.704;2023-04-03T01:00:33;97725.91;;;2.73;76.84
56894;BME280;43392;50.078;13.704;2023-04-03T01:03:02;97728.56;;;2.73;77.15
56894;BME280;43392;50.078;13.704;2023-04-03T01:05:29;97725.09;;;2.72;77.04
56894;BME280;43392;50.078;13.704;2023-04-03T01:07:56;97732.66;;;2.68;76.92
56894;BME280;43392;50.078;13.704;2023-04-03T01:10:24;97734.06;;;2.64;77.05
56894;BME280;43392;50.078;13.704;2023-04-03T01:12:52;97731.41;;;2.64;76.88
56894;BME280;43392;50.078;13.704;2023-04-03T01:15:21;97734.06;;;2.64;77.24
56894;BME280;43392;50.078;13.704;2023-04-03T01:17:49;97732.47;;;2.63;77.04
56894;BME280;43392;50.078;13.704;2023-04-03T01:23:30;97725.94;;;2.59;77.22
56894;BME280;43392;50.078;13.704;2023-04-03T01:25:59;97733.88;;;2.59;77.31
56894;BME280;43392;50.078;13.704;2023-04-03T01:28:29;97728.56;;;2.59;77.47
56894;BME280;43392;50.078;13.704;2023-04-03T01:31:02;97738.38;;;2.59;77.23
56894;BME280;43392;50.078;13.704;2023-04-03T01:33:32;97739.16;;;2.59;77.52
56894;BME280;43392;50.078;13.704;2023-04-03T01:35:59;97748.53;;;2.55;77.31
56894;BME280;43392;50.078;13.704;2023-04-03T01:38:25;97736.34;;;2.48;77.67
56894;BME280;43392;50.078;13.704;2023-04-03T01:40:52;97751.00;;;2.50;77.04
56894;BME280;43392;50.078;13.704;2023-04-03T01:43:18;97755.06;;;2.46;76.38
56894;BME280;43392;50.078;13.704;2023-04-03T01:45:45;97751.19;;;2.42;76.84
56894;BME280;43392;50.078;13.704;2023-04-03T01:48:14;97767.69;;;2.38;76.00
56894;BME280;43392;50.078;13.704;2023-04-03T01:50:43;97756.09;;;2.32;76.33
56894;BME280;43392;50.078;13.704;2023-04-03T01:53:10;97748.97;;;2.26;76.07
56894;BME280;43392;50.078;13.704;2023-04-03T01:55:37;97744.72;;;2.25;76.53
56894;BME280;43392;50.078;13.704;2023-04-03T01:58:03;97744.50;;;2.27;76.69
56894;BME280;43392;50.078;13.704;2023-04-03T02:00:30;97754.66;;;2.23;76.63
56894;BME280;43392;50.078;13.704;2023-04-03T02:02:56;97758.13;;;2.17;74.59
56894;BME280;43392;50.078;13.704;2023-04-03T02:05:23;97761.78;;;2.10;73.30
56894;BME280;43392;50.078;13.704;2023-04-03T02:07:51;97764.44;;;2.03;71.85
56894;BME280;43392;50.078;13.704;2023-04-03T02:10:17;97767.66;;;1.92;69.91
56894;BME280;43392;50.078;13.704;2023-04-03T02:12:44;97780.03;;;1.85;69.61
56894;BME280;43392;50.078;13.704;2023-04-03T02:15:11;97776.78;;;1.76;68.45
56894;BME280;43392;50.078;13.704;2023-04-03T02:17:37;97779.38;;;1.70;68.53
56894;BME280;43392;50.078;13.704;2023-04-03T02:20:05;97781.03;;;1.64;68.61
56894;BME280;43392;50.078;13.704;2023-04-03T02:22:32;97771.22;;;1.58;68.86
56894;BME280;43392;50.078;13.704;2023-04-03T02:25:00;97780.59;;;1.54;68.34
56894;BME280;43392;50.078;13.704;2023-04-03T02:27:26;97775.28;;;1.48;68.81
56894;BME280;43392;50.078;13.704;2023-04-03T02:29:53;97774.03;;;1.44;68.31
56894;BME280;43392;50.078;13.704;2023-04-03T02:32:20;97776.06;;;1.42;68.30
56894;BME280;43392;50.078;13.704;2023-04-03T02:34:46;97774.63;;;1.39;68.34
56894;BME280;43392;50.078;13.704;2023-04-03T02:37:13;97774.84;;;1.38;68.98
56894;BME280;43392;50.078;13.704;2023-04-03T02:39:39;97770.53;;;1.37;68.96
56894;BME280;43392;50.078;13.704;2023-04-03T02:42:07;97781.31;;;1.35;67.85
56894;BME280;43392;50.078;13.704;2023-04-03T02:44:34;97780.88;;;1.31;67.49
56894;BME280;43392;50.078;13.704;2023-04-03T02:47:00;97780.47;;;1.28;68.03
56894;BME280;43392;50.078;13.704;2023-04-03T02:49:27;97790.00;;;1.22;67.39
56894;BME280;43392;50.078;13.704;2023-04-03T02:51:54;97781.25;;;1.22;67.57
56894;BME280;43392;50.078;13.704;2023-04-03T02:54:21;97789.38;;;1.20;67.70
56894;BME280;43392;50.078;13.704;2023-04-03T02:56:48;97788.34;;;1.21;67.21
56894;BME280;43392;50.078;13.704;2023-04-03T02:59:16;97779.59;;;1.14;67.02
56894;BME280;43392;50.078;13.704;2023-04-03T03:01:43;97785.69;;;1.15;67.59
56894;BME280;43392;50.078;13.704;2023-04-03T03:04:09;97794.81;;;1.12;68.06
56894;BME280;43392;50.078;13.704;2023-04-03T03:06:36;97790.94;;;1.08;67.43
56894;BME280;43392;50.078;13.704;2023-04-03T03:09:03;97786.50;;;1.09;67.99
56894;BME280;43392;50.078;13.704;2023-04-03T03:11:29;97788.91;;;1.10;68.64
56894;BME280;43392;50.078;13.704;2023-04-03T03:13:57;97787.28;;;1.09;68.49
56894;BME280;43392;50.078;13.704;2023-04-03T03:16:25;97801.69;;;1.07;67.89
56894;BME280;43392;50.078;13.704;2023-04-03T03:18:52;97797.00;;;1.02;68.61
56894;BME280;43392;50.078;13.704;2023-04-03T03:21:18;97795.19;;;1.03;69.27
56894;BME280;43392;50.078;13.704;2023-04-03T03:23:45;97798.03;;;1.01;68.61
56894;BME280;43392;50.078;13.704;2023-04-03T03:26:11;97795.53;;;0.93;69.08
56894;BME280;43392;50.078;13.704;2023-04-03T03:28:39;97795.97;;;0.97;68.89
56894;BME280;43392;50.078;13.704;2023-04-03T03:31:06;97801.63;;;0.94;68.46
56894;BME280;43392;50.078;13.704;2023-04-03T03:33:34;97807.09;;;0.92;68.46
56894;BME280;43392;50.078;13.704;2023-04-03T03:36:01;97794.28;;;0.89;68.69
56894;BME280;43392;50.078;13.704;2023-04-03T03:38:28;97803.22;;;0.88;68.94
56894;BME280;43392;50.078;13.704;2023-04-03T03:40:54;97807.66;;;0.88;69.17
56894;BME280;43392;50.078;13.704;2023-04-03T03:43:21;97796.88;;;0.83;68.29
56894;BME280;43392;50.078;13.704;2023-04-03T03:45:50;97810.91;;;0.83;68.23
56894;BME280;43392;50.078;13.704;2023-04-03T03:48:17;97813.13;;;0.80;68.13
56894;BME280;43392;50.078;13.704;2023-04-03T03:50:46;97809.41;;;0.74;68.02
56894;BME280;43392;50.078;13.704;2023-04-03T03:53:13;97809.19;;;0.69;67.67
56894;BME280;43392;50.078;13.704;2023-04-03T03:55:40;97821.13;;;0.65;67.59
56894;BME280;43392;50.078;13.704;2023-04-03T03:58:07;97802.41;;;0.60;67.57
56894;BME280;43392;50.078;13.704;2023-04-03T04:00:34;97816.00;;;0.57;68.02
56894;BME280;43392;50.078;13.704;2023-04-03T04:03:00;97814.53;;;0.54;68.43
56894;BME280;43392;50.078;13.704;2023-04-03T04:05:27;97812.63;;;0.42;67.87
56894;BME280;43392;50.078;13.704;2023-04-03T04:07:55;97821.72;;;0.39;68.33
56894;BME280;43392;50.078;13.704;2023-04-03T04:10:22;97823.31;;;0.34;68.31
56894;BME280;43392;50.078;13.704;2023-04-03T04:12:48;97829.34;;;0.28;68.16
56894;BME280;43392;50.078;13.704;2023-04-03T04:15:16;97832.19;;;0.26;68.01
56894;BME280;43392;50.078;13.704;2023-04-03T04:17:43;97829.72;;;0.25;68.43
56894;BME280;43392;50.078;13.704;2023-04-03T04:20:11;97831.09;;;0.21;68.42
56894;BME280;43392;50.078;13.704;2023-04-03T04:22:37;97837.13;;;0.15;68.51
56894;BME280;43392;50.078;13.704;2023-04-03T04:25:06;97840.53;;;0.09;68.53
56894;BME280;43392;50.078;13.704;2023-04-03T04:27:33;97841.91;;;0.05;69.45
56894;BME280;43392;50.078;13.704;2023-04-03T04:30:00;97842.28;;;0.02;69.67
56894;BME280;43392;50.078;13.704;2023-04-03T04:32:27;97839.59;;;-0.05;69.54
56894;BME280;43392;50.078;13.704;2023-04-03T04:34:53;97853.19;;;-0.02;69.28
56894;BME280;43392;50.078;13.704;2023-04-03T04:37:20;97849.72;;;-0.02;69.78
56894;BME280;43392;50.078;13.704;2023-04-03T04:39:46;97855.00;;;-0.02;69.09
56894;BME280;43392;50.078;13.704;2023-04-03T04:42:14;97864.91;;;-0.04;69.50
56894;BME280;43392;50.078;13.704;2023-04-03T04:44:42;97861.66;;;-0.06;69.86
56894;BME280;43392;50.078;13.704;2023-04-03T04:47:08;97855.13;;;-0.10;69.58
56894;BME280;43392;50.078;13.704;2023-04-03T04:49:35;97866.47;;;-0.10;69.58
56894;BME280;43392;50.078;13.704;2023-04-03T04:52:02;97861.75;;;-0.14;69.68
56894;BME280;43392;50.078;13.704;2023-04-03T04:54:28;97867.13;;;-0.08;69.86
56894;BME280;43392;50.078;13.704;2023-04-03T04:56:55;97869.00;;;-0.02;69.37
56894;BME280;43392;50.078;13.704;2023-04-03T04:59:23;97871.66;;;-0.02;69.35
56894;BME280;43392;50.078;13.704;2023-04-03T05:01:49;97871.03;;;-0.04;69.66
56894;BME280;43392;50.078;13.704;2023-04-03T05:04:16;97873.28;;;-0.01;69.62
56894;BME280;43392;50.078;13.704;2023-04-03T05:06:43;97876.34;;;0.03;69.58
56894;BME280;43392;50.078;13.704;2023-04-03T05:09:09;97880.28;;;0.07;69.16
56894;BME280;43392;50.078;13.704;2023-04-03T05:11:36;97864.44;;;0.07;68.90
56894;BME280;43392;50.078;13.704;2023-04-03T05:14:03;97868.53;;;0.10;69.35
56894;BME280;43392;50.078;13.704;2023-04-03T05:16:33;97877.06;;;0.12;68.99
56894;BME280;43392;50.078;13.704;2023-04-03T05:19:00;97877.31;;;0.17;69.21
56894;BME280;43392;50.078;13.704;2023-04-03T05:21:26;97881.78;;;0.16;68.83
56894;BME280;43392;50.078;13.704;2023-04-03T05:23:57;97877.13;;;0.18;68.81
56894;BME280;43392;50.078;13.704;2023-04-03T05:26:23;97885.50;;;0.22;68.31
56894;BME280;43392;50.078;13.704;2023-04-03T05:28:50;97885.09;;;0.25;68.72
56894;BME280;43392;50.078;13.704;2023-04-03T05:31:17;97882.09;;;0.28;68.42
56894;BME280;43392;50.078;13.704;2023-04-03T05:33:45;97884.53;;;0.29;68.30
56894;BME280;43392;50.078;13.704;2023-04-03T05:36:12;97884.63;;;0.36;68.28
56894;BME280;43392;50.078;13.704;2023-04-03T05:38:39;97880.97;;;0.37;68.06
56894;BME280;43392;50.078;13.704;2023-04-03T05:41:05;97896.66;;;0.45;68.29
56894;BME280;43392;50.078;13.704;2023-04-03T05:43:32;97897.91;;;0.49;68.16
56894;BME280;43392;50.078;13.704;2023-04-03T05:45:59;97892.00;;;0.47;67.99
56894;BME280;43392;50.078;13.704;2023-04-03T05:48:26;97896.09;;;0.49;67.90
56894;BME280;43392;50.078;13.704;2023-04-03T05:50:54;97902.63;;;0.53;68.04
56894;BME280;43392;50.078;13.704;2023-04-03T05:53:22;97902.88;;;0.58;67.96
56894;BME280;43392;50.078;13.704;2023-04-03T05:55:51;97901.69;;;0.61;67.58
56894;BME280;43392;50.078;13.704;2023-04-03T05:58:19;97904.31;;;0.61;66.87
56894;BME280;43392;50.078;13.704;2023-04-03T06:00:45;97906.34;;;0.59;66.98
56894;BME280;43392;50.078;13.704;2023-04-03T06:03:12;97907.59;;;0.63;67.64
56894;BME280;43392;50.078;13.704;2023-04-03T06:05:38;97906.34;;;0.59;67.49
56894;BME280;43392;50.078;13.704;2023-04-03T06:08:07;97907.59;;;0.63;67.78
56894;BME280;43392;50.078;13.704;2023-04-03T06:10:34;97908.66;;;0.68;67.41
56894;BME280;43392;50.078;13.704;2023-04-03T06:13:01;97906.88;;;0.76;67.91
56894;BME280;43392;50.078;13.704;2023-04-03T06:15:28;97911.16;;;0.77;68.12
56894;BME280;43392;50.078;13.704;2023-04-03T06:17:54;97910.91;;;0.72;67.02
56894;BME280;43392;50.078;13.704;2023-04-03T06:20:21;97916.00;;;0.52;66.90
56894;BME280;43392;50.078;13.704;2023-04-03T06:22:48;97924.44;;;0.41;67.60
56894;BME280;43392;50.078;13.704;2023-04-03T06:25:17;97917.09;;;0.36;67.94
56894;BME280;43392;50.078;13.704;2023-04-03T06:27:44;97922.47;;;0.28;67.90
56894;BME280;43392;50.078;13.704;2023-04-03T06:30:11;97914.31;;;0.23;68.49
56894;BME280;43392;50.078;13.704;2023-04-03T06:32:38;97914.50;;;0.22;69.11
56894;BME280;43392;50.078;13.704;2023-04-03T06:35:05;97918.59;;;0.24;69.78
56894;BME280;43392;50.078;13.704;2023-04-03T06:37:32;97909.84;;;0.24;69.69
56894;BME280;43392;50.078;13.704;2023-04-03T06:39:59;97916.00;;;0.31;69.16
56894;BME280;43392;50.078;13.704;2023-04-03T06:42:28;97921.75;;;0.20;69.29
56894;BME280;43392;50.078;13.704;2023-04-03T06:44:54;97926.25;;;0.19;69.16
56894;BME280;43392;50.078;13.704;2023-04-03T06:47:21;97927.44;;;0.17;68.56
56894;BME280;43392;50.078;13.704;2023-04-03T06:49:47;97932.31;;;0.20;68.92
56894;BME280;43392;50.078;13.704;2023-04-03T06:52:14;97938.41;;;0.20;69.48
56894;BME280;43392;50.078;13.704;2023-04-03T06:54:41;97942.50;;;0.23;70.14
56894;BME280;43392;50.078;13.704;2023-04-03T06:57:07;97935.66;;;0.28;69.71
56894;BME280;43392;50.078;13.704;2023-04-03T06:59:37;97943.66;;;0.35;69.13
56894;BME280;43392;50.078;13.704;2023-04-03T07:02:05;97957.66;;;0.35;69.17
56894;BME280;43392;50.078;13.704;2023-04-03T07:04:32;97957.03;;;0.33;69.32
56894;BME280;43392;50.078;13.704;2023-04-03T07:06:58;97951.13;;;0.31;68.35
56894;BME280;43392;50.078;13.704;2023-04-03T07:09:25;97944.28;;;0.37;68.80
56894;BME280;43392;50.078;13.704;2023-04-03T07:11:52;97953.72;;;0.46;69.41
56894;BME280;43392;50.078;13.704;2023-04-03T07:14:18;97953.84;;;0.59;70.56
56894;BME280;43392;50.078;13.704;2023-04-03T07:16:48;97969.81;;;0.72;68.55
56894;BME280;43392;50.078;13.704;2023-04-03T07:19:14;97965.16;;;0.74;68.37
56894;BME280;43392;50.078;13.704;2023-04-03T07:21:43;97975.66;;;0.68;67.08
56894;BME280;43392;50.078;13.704;2023-04-03T07:24:10;97973.44;;;0.71;67.74
56894;BME280;43392;50.078;13.704;2023-04-03T07:26:36;97978.84;;;0.63;67.08
56894;BME280;43392;50.078;13.704;2023-04-03T07:29:03;97971.31;;;0.60;66.54
56894;BME280;43392;50.078;13.704;2023-04-03T07:31:30;97966.72;;;0.47;67.65
56894;BME280;43392;50.078;13.704;2023-04-03T07:33:58;97979.41;;;0.58;67.45
56894;BME280;43392;50.078;13.704;2023-04-03T07:36:25;97986.66;;;0.71;68.83
56894;BME280;43392;50.078;13.704;2023-04-03T07:38:51;97989.44;;;0.84;68.10
56894;BME280;43392;50.078;13.704;2023-04-03T07:41:19;97975.44;;;0.90;66.92
56894;BME280;43392;50.078;13.704;2023-04-03T07:43:47;97990.19;;;0.99;66.13
56894;BME280;43392;50.078;13.704;2023-04-03T07:46:15;97990.03;;;1.07;67.24
56894;BME280;43392;50.078;13.704;2023-04-03T07:48:42;97990.66;;;1.09;67.02
56894;BME280;43392;50.078;13.704;2023-04-03T07:51:11;97986.44;;;1.15;65.50
56894;BME280;43392;50.078;13.704;2023-04-03T07:53:38;97989.09;;;1.15;66.22
56894;BME280;43392;50.078;13.704;2023-04-03T07:56:05;97996.25;;;1.21;65.36
56894;BME280;43392;50.078;13.704;2023-04-03T07:58:32;97984.88;;;1.20;64.88
56894;BME280;43392;50.078;13.704;2023-04-03T08:00:59;97996.59;;;1.11;64.60
56894;BME280;43392;50.078;13.704;2023-04-03T08:03:26;97997.81;;;1.15;64.49
56894;BME280;43392;50.078;13.704;2023-04-03T08:05:52;97994.97;;;1.17;64.89
56894;BME280;43392;50.078;13.704;2023-04-03T08:08:22;97988.13;;;1.22;64.58
56894;BME280;43392;50.078;13.704;2023-04-03T08:10:50;97988.19;;;1.29;64.60
56894;BME280;43392;50.078;13.704;2023-04-03T08:13:17;98002.06;;;1.38;64.88
56894;BME280;43392;50.078;13.704;2023-04-03T08:15:43;98007.13;;;1.32;63.92
56894;BME280;43392;50.078;13.704;2023-04-03T08:18:10;97991.00;;;1.27;63.85
56894;BME280;43392;50.078;13.704;2023-04-03T08:20:38;97994.28;;;1.29;61.95
56894;BME280;43392;50.078;13.704;2023-04-03T08:23:05;97986.09;;;1.24;63.84
56894;BME280;43392;50.078;13.704;2023-04-03T08:25:33;97996.38;;;1.41;64.08
56894;BME280;43392;50.078;13.704;2023-04-03T08:28:00;97998.31;;;1.53;62.11
56894;BME280;43392;50.078;13.704;2023-04-03T08:30:27;97993.09;;;1.60;63.14
56894;BME280;43392;50.078;13.704;2023-04-03T08:32:53;98013.59;;;1.58;61.34
56894;BME280;43392;50.078;13.704;2023-04-03T08:35:20;98004.88;;;1.57;60.94
56894;BME280;43392;50.078;13.704;2023-04-03T08:37:46;98002.88;;;1.66;62.81
56894;BME280;43392;50.078;13.704;2023-04-03T08:40:15;98013.94;;;1.76;61.51
56894;BME280;43392;50.078;13.704;2023-04-03T08:42:51;97996.47;;;1.81;62.04
56894;BME280;43392;50.078;13.704;2023-04-03T08:45:26;98002.41;;;1.90;60.79
56894;BME280;43392;50.078;13.704;2023-04-03T08:47:58;98004.06;;;1.91;61.53
56894;BME280;43392;50.078;13.704;2023-04-03T08:50:31;98016.06;;;1.93;60.17
56894;BME280;43392;50.078;13.704;2023-04-03T08:53:01;98009.00;;;2.07;60.23
56894;BME280;43392;50.078;13.704;2023-04-03T08:55:33;98009.47;;;2.11;58.80
56894;BME280;43392;50.078;13.704;2023-04-03T08:58:04;98008.19;;;2.07;59.86
56894;BME280;43392;50.078;13.704;2023-04-03T09:00:37;98000.69;;;2.10;59.91
56894;BME280;43392;50.078;13.704;2023-04-03T09:03:11;97994.44;;;2.24;59.73
56894;BME280;43392;50.078;13.704;2023-04-03T09:05:42;98019.16;;;2.44;59.92
56894;BME280;43392;50.078;13.704;2023-04-03T09:08:18;98000.19;;;2.34;57.59
56894;BME280;43392;50.078;13.704;2023-04-03T09:10:48;98011.88;;;2.06;58.46
56894;BME280;43392;50.078;13.704;2023-04-03T09:13:24;98025.03;;;1.99;58.22
56894;BME280;43392;50.078;13.704;2023-04-03T09:15:53;98009.75;;;1.94;59.49
56894;BME280;43392;50.078;13.704;2023-04-03T09:18:23;98015.38;;;2.13;57.09
56894;BME280;43392;50.078;13.704;2023-04-03T09:20:58;98019.56;;;2.00;57.48
56894;BME280;43392;50.078;13.704;2023-04-03T09:23:30;98019.50;;;1.94;57.95
56894;BME280;43392;50.078;13.704;2023-04-03T09:26:02;98027.44;;;1.94;58.08
56894;BME280;43392;50.078;13.704;2023-04-03T09:28:36;98011.03;;;2.05;58.16
56894;BME280;43392;50.078;13.704;2023-04-03T09:31:16;98012.94;;;2.18;59.03
56894;BME280;43392;50.078;13.704;2023-04-03T09:33:45;98019.44;;;2.15;56.61
56894;BME280;43392;50.078;13.704;2023-04-03T09:36:12;98034.06;;;2.11;55.37
56894;BME280;43392;50.078;13.704;2023-04-03T09:38:39;98015.19;;;2.21;56.00
56894;BME280;43392;50.078;13.704;2023-04-03T09:41:07;98026.28;;;2.37;55.09
56894;BME280;43392;50.078;13.704;2023-04-03T09:43:37;98011.25;;;2.51;54.81
56894;BME280;43392;50.078;13.704;2023-04-03T09:48:59;98001.75;;;2.83;53.87
56894;BME280;43392;50.078;13.704;2023-04-03T09:51:27;98018.09;;;2.93;52.96
56894;BME280;43392;50.078;13.704;2023-04-03T09:53:54;98033.38;;;2.97;53.84
56894;BME280;43392;50.078;13.704;2023-04-03T09:56:24;98024.81;;;3.02;52.10
56894;BME280;43392;50.078;13.704;2023-04-03T09:59:07;98025.22;;;2.99;59.96
56894;BME280;43392;50.078;13.704;2023-04-03T10:01:36;98020.75;;;3.71;53.66
56894;BME280;43392;50.078;13.704;2023-04-03T10:04:06;98023.38;;;3.78;50.95
56894;BME280;43392;50.078;13.704;2023-04-03T10:06:35;98022.44;;;4.30;59.05
56894;BME280;43392;50.078;13.704;2023-04-03T10:09:05;98011.63;;;5.13;51.77
56894;BME280;43392;50.078;13.704;2023-04-03T10:11:32;98016.94;;;5.13;55.53
56894;BME280;43392;50.078;13.704;2023-04-03T10:14:02;97996.72;;;5.80;56.38
56894;BME280;43392;50.078;13.704;2023-04-03T10:16:35;98013.34;;;6.18;50.40
56894;BME280;43392;50.078;13.704;2023-04-03T10:19:29;98014.53;;;5.55;48.01
56894;BME280;43392;50.078;13.704;2023-04-03T10:22:00;97998.44;;;4.56;50.81
56894;BME280;43392;50.078;13.704;2023-04-03T10:24:36;98024.16;;;3.98;51.61
56894;BME280;43392;50.078;13.704;2023-04-03T10:27:12;98020.56;;;3.53;52.14
56894;BME280;43392;50.078;13.704;2023-04-03T10:29:46;98024.41;;;3.18;52.04
56894;BME280;43392;50.078;13.704;2023-04-03T10:32:47;98013.38;;;3.08;52.56
56894;BME280;43392;50.078;13.704;2023-04-03T10:35:23;98005.88;;;3.18;53.42
56894;BME280;43392;50.078;13.704;2023-04-03T10:38:01;98022.00;;;3.43;52.12
56894;BME280;43392;50.078;13.704;2023-04-03T10:40:34;98034.84;;;3.39;51.86
56894;BME280;43392;50.078;13.704;2023-04-03T10:43:09;98016.47;;;3.44;51.64
56894;BME280;43392;50.078;13.704;2023-04-03T10:45:51;98006.91;;;3.23;52.86
56894;BME280;43392;50.078;13.704;2023-04-03T10:48:29;98006.06;;;3.16;54.05
56894;BME280;43392;50.078;13.704;2023-04-03T10:51:07;98021.78;;;3.11;50.57
56894;BME280;43392;50.078;13.704;2023-04-03T10:53:39;98009.75;;;3.22;50.24
56894;BME280;43392;50.078;13.704;2023-04-03T10:56:13;98005.66;;;3.59;48.53
56894;BME280;43392;50.078;13.704;2023-04-03T10:58:44;98019.72;;;3.72;51.39
56894;BME280;43392;50.078;13.704;2023-04-03T11:01:14;97983.63;;;3.52;51.27
56894;BME280;43392;50.078;13.704;2023-04-03T11:03:44;97990.16;;;3.43;51.78
56894;BME280;43392;50.078;13.704;2023-04-03T11:06:14;97995.09;;;3.39;52.40
56894;BME280;43392;50.078;13.704;2023-04-03T11:08:44;97994.03;;;3.40;51.38
56894;BME280;43392;50.078;13.704;2023-04-03T11:11:15;97987.72;;;3.67;51.02
56894;BME280;43392;50.078;13.704;2023-04-03T11:13:45;97986.28;;;3.65;49.75
56894;BME280;43392;50.078;13.704;2023-04-03T11:16:21;97980.19;;;3.38;50.68
56894;BME280;43392;50.078;13.704;2023-04-03T11:18:52;97975.91;;;3.30;52.20
56894;BME280;43392;50.078;13.704;2023-04-03T11:21:22;97987.72;;;3.28;51.15
56894;BME280;43392;50.078;13.704;2023-04-03T11:23:53;97985.66;;;3.69;48.96
56894;BME280;43392;50.078;13.704;2023-04-03T11:26:27;97986.38;;;4.02;50.75
56894;BME280;43392;50.078;13.704;2023-04-03T11:28:59;97985.09;;;4.25;50.90
56894;BME280;43392;50.078;13.704;2023-04-03T11:31:38;97972.44;;;4.20;51.29
56894;BME280;43392;50.078;13.704;2023-04-03T11:34:19;97988.03;;;4.03;50.24
56894;BME280;43392;50.078;13.704;2023-04-03T11:36:53;97967.06;;;3.82;49.58
56894;BME280;43392;50.078;13.704;2023-04-03T11:39:24;97975.84;;;3.76;49.15
56894;BME280;43392;50.078;13.704;2023-04-03T11:41:51;97967.69;;;3.71;49.02
56894;BME280;43392;50.078;13.704;2023-04-03T11:44:32;97975.47;;;3.73;48.98
56894;BME280;43392;50.078;13.704;2023-04-03T11:47:01;97981.97;;;3.64;50.81
56894;BME280;43392;50.078;13.704;2023-04-03T11:49:50;97971.81;;;3.61;52.20
56894;BME280;43392;50.078;13.704;2023-04-03T11:55:46;97970.59;;;3.50;51.50
56894;BME280;43392;50.078;13.704;2023-04-03T11:58:19;97974.66;;;3.40;51.52
56894;BME280;43392;50.078;13.704;2023-04-03T12:00:55;97972.66;;;3.28;51.25
56894;BME280;43392;50.078;13.704;2023-04-03T12:10:15;97987.69;;;3.74;50.45
56894;BME280;43392;50.078;13.704;2023-04-03T12:12:56;97967.72;;;3.65;50.50
56894;BME280;43392;50.078;13.704;2023-04-03T12:15:41;97974.25;;;3.62;51.94
56894;BME280;43392;50.078;13.704;2023-04-03T12:21:18;97965.59;;;3.93;51.71
56894;BME280;43392;50.078;13.704;2023-04-03T12:24:23;97957.09;;;3.65;51.49
56894;BME280;43392;50.078;13.704;2023-04-03T12:27:05;97956.50;;;3.50;51.03
56894;BME280;43392;50.078;13.704;2023-04-03T12:29:34;97956.31;;;3.38;51.72
56894;BME280;43392;50.078;13.704;2023-04-03T12:32:11;97952.03;;;3.30;50.16
56894;BME280;43392;50.078;13.704;2023-04-03T12:35:05;97959.19;;;3.43;50.24
56894;BME280;43392;50.078;13.704;2023-04-03T12:37:48;97952.19;;;3.75;48.96
56894;BME280;43392;50.078;13.704;2023-04-03T12:40:24;97941.09;;;4.04;51.60
56894;BME280;43392;50.078;13.704;2023-04-03T12:43:10;97939.91;;;3.87;51.57
56894;BME280;43392;50.078;13.704;2023-04-03T12:45:46;97948.31;;;3.64;50.48
56894;BME280;43392;50.078;13.704;2023-04-03T12:48:16;97952.66;;;3.39;49.19
56894;BME280;43392;50.078;13.704;2023-04-03T12:50:46;97948.38;;;3.31;50.49
56894;BME280;43392;50.078;13.704;2023-04-03T12:53:15;97939.63;;;3.24;49.98
56894;BME280;43392;50.078;13.704;2023-04-03T12:55:43;97949.41;;;3.30;50.46
56894;BME280;43392;50.078;13.704;2023-04-03T12:58:16;97955.31;;;3.39;51.53
56894;BME280;43392;50.078;13.704;2023-04-03T13:00:43;97949.56;;;3.62;50.53
56894;BME280;43392;50.078;13.704;2023-04-03T13:03:22;97939.78;;;3.62;51.62
56894;BME280;43392;50.078;13.704;2023-04-03T13:05:49;97948.16;;;3.53;50.02
56894;BME280;43392;50.078;13.704;2023-04-03T13:08:17;97941.66;;;3.35;51.68
56894;BME280;43392;50.078;13.704;2023-04-03T13:10:53;97950.63;;;3.28;51.28
56894;BME280;43392;50.078;13.704;2023-04-03T13:13:22;97961.63;;;3.18;49.88
56894;BME280;43392;50.078;13.704;2023-04-03T13:15:49;97950.63;;;3.15;49.58
56894;BME280;43392;50.078;13.704;2023-04-03T13:18:22;97935.75;;;3.14;49.71
56894;BME280;43392;50.078;13.704;2023-04-03T13:20:49;97939.22;;;3.34;49.64
56894;BME280;43392;50.078;13.704;2023-04-03T13:23:17;97936.72;;;3.65;49.07
56894;BME280;43392;50.078;13.704;2023-04-03T13:25:48;97937.13;;;3.62;48.81
56894;BME280;43392;50.078;13.704;2023-04-03T13:28:19;97925.09;;;3.60;48.58
56894;BME280;43392;50.078;13.704;2023-04-03T13:31:02;97923.25;;;3.54;49.49